Time;durP1;ratioP1;P1;durP2;ratioP2;P2;SDS_P1;SDS_P2;PMS_P1;PMS_P2;Temp;Humidity;BMP_temperature;BMP_pressure;BME280_temperature;BME280_humidity;BME280_pressure;Samples;Min_cycle;Max_cycle;Signal;HPM_P1;HPM_P2
2022/05/23 00:00:51;;;;;;;1.77;0.20;;;18.80;55.40;;;;;;5113348;28;20078;-73
2022/05/23 00:03:18;;;;;;;0.68;0.20;;;18.80;55.40;;;;;;5114473;28;20058;-72
2022/05/23 00:05:44;;;;;;;1.25;0.30;;;18.80;55.40;;;;;;5113121;28;20047;-70
2022/05/23 00:08:10;;;;;;;3.10;0.40;;;18.80;55.40;;;;;;5113066;28;20046;-73
2022/05/23 00:10:36;;;;;;;1.88;0.30;;;18.80;55.40;;;;;;5114350;28;20043;-71
2022/05/23 00:13:02;;;;;;;1.60;0.95;;;18.80;55.40;;;;;;5113297;28;20387;-72
2022/05/23 00:15:28;;;;;;;0.75;0.20;;;18.80;55.40;;;;;;5112941;28;20047;-72
2022/05/23 00:17:55;;;;;;;1.10;0.20;;;18.80;55.40;;;;;;5112969;28;20452;-73
2022/05/23 00:20:23;;;;;;;1.08;0.20;;;18.80;55.40;;;;;;5114159;28;20071;-71
2022/05/23 00:22:50;;;;;;;1.30;0.20;;;18.80;55.40;;;;;;5112859;28;20109;-72
2022/05/23 00:25:16;;;;;;;1.15;0.20;;;18.80;55.50;;;;;;5113970;28;20119;-71
2022/05/23 00:27:45;;;;;;;1.75;0.40;;;18.80;55.40;;;;;;5113055;28;20096;-72
2022/05/23 00:30:13;;;;;;;0.60;0.20;;;18.80;55.40;;;;;;5112472;28;20471;-66
2022/05/23 00:35:25;;;;;;;1.50;0.25;;;18.70;55.40;;;;;;5112466;28;20047;-71
2022/05/23 00:37:53;;;;;;;1.10;0.20;;;18.70;55.40;;;;;;5112579;28;20058;-71
2022/05/23 00:40:43;;;;;;;1.10;0.80;;;18.70;55.40;;;;;;5112513;28;20043;-72
2022/05/23 00:43:16;;;;;;;1.42;0.30;;;18.70;55.40;;;;;;5113437;28;20039;-71
2022/05/23 00:48:28;;;;;;;2.63;0.30;;;18.70;55.50;;;;;;5109703;27;1202445;-71
2022/05/23 00:50:57;;;;;;;2.83;0.52;;;18.60;55.40;;;;;;5111553;28;20096;-70
2022/05/23 00:53:39;;;;;;;0.60;0.20;;;18.70;55.50;;;;;;5111534;28;20046;-71
2022/05/23 00:56:08;;;;;;;1.45;0.28;;;18.60;55.40;;;;;;5111321;28;20079;-72
2022/05/23 00:58:40;;;;;;;0.88;0.30;;;18.60;55.50;;;;;;5129817;28;20037;-73
2022/05/23 01:01:09;;;;;;;1.55;0.20;;;18.60;55.40;;;;;;5111455;28;20039;-67
2022/05/23 01:03:35;;;;;;;0.75;0.20;;;18.60;55.50;;;;;;5129848;28;20036;-71
2022/05/23 01:06:01;;;;;;;0.85;0.20;;;18.60;55.50;;;;;;5129526;28;20039;-71
2022/05/23 01:08:27;;;;;;;0.60;0.20;;;18.60;55.50;;;;;;5111281;28;20126;-72
2022/05/23 01:10:53;;;;;;;1.08;0.20;;;18.60;55.50;;;;;;5111356;28;20334;-73
2022/05/23 01:13:19;;;;;;;1.85;0.38;;;18.60;55.50;;;;;;5111179;28;20324;-71
2022/05/23 01:15:48;;;;;;;1.52;0.68;;;18.60;55.50;;;;;;5110883;28;20047;-71
2022/05/23 01:18:15;;;;;;;0.85;0.28;;;18.60;55.50;;;;;;5110868;28;20519;-71
2022/05/23 01:20:41;;;;;;;1.38;0.28;;;18.60;55.50;;;;;;5111274;28;20051;-72
2022/05/23 01:23:50;;;;;;;0.68;0.20;;;18.60;55.50;;;;;;5110943;28;20052;-71
2022/05/23 01:26:15;;;;;;;0.80;0.30;;;18.50;55.50;;;;;;5110771;28;20510;-71
2022/05/23 01:28:42;;;;;;;2.55;0.20;;;18.60;55.60;;;;;;5111043;28;20164;-71
2022/05/23 01:31:10;;;;;;;1.55;0.20;;;18.60;55.60;;;;;;5111193;28;20110;-71
2022/05/23 01:33:36;;;;;;;1.67;0.30;;;18.60;55.60;;;;;;5110740;28;20058;-73
2022/05/23 01:36:02;;;;;;;1.15;0.20;;;18.50;55.50;;;;;;5110775;28;20036;-70
2022/05/23 01:38:28;;;;;;;1.23;0.30;;;18.50;55.50;;;;;;5128842;28;20054;-66
2022/05/23 01:40:55;;;;;;;1.17;0.40;;;18.50;55.50;;;;;;5110926;28;20031;-71
2022/05/23 01:43:21;;;;;;;0.90;0.55;;;18.50;55.50;;;;;;5111054;28;20097;-66
2022/05/23 01:45:46;;;;;;;1.20;0.35;;;18.50;55.50;;;;;;5129042;28;20039;-70
2022/05/23 01:48:12;;;;;;;1.67;0.35;;;18.50;55.50;;;;;;5128392;28;20126;-72
2022/05/23 01:50:38;;;;;;;1.10;0.20;;;18.50;55.50;;;;;;5106296;28;20442;-67
2022/05/23 01:53:04;;;;;;;0.95;0.20;;;18.50;55.50;;;;;;5108143;28;20057;-66
2022/05/23 01:55:30;;;;;;;1.95;0.30;;;18.50;55.60;;;;;;5090020;28;20513;-68
2022/05/23 01:57:56;;;;;;;1.17;0.30;;;18.50;55.50;;;;;;5086500;28;20097;-72
2022/05/23 02:03:08;;;;;;;0.60;0.20;;;18.50;55.50;;;;;;5076523;28;20479;-72
2022/05/23 02:05:34;;;;;;;1.63;0.32;;;18.50;55.50;;;;;;5095845;28;20093;-72
2022/05/23 02:08:04;;;;;;;2.58;0.38;;;18.50;55.50;;;;;;5076604;28;20044;-71
2022/05/23 02:10:30;;;;;;;1.85;0.20;;;18.50;55.60;;;;;;5094446;28;20044;-71
2022/05/23 02:12:59;;;;;;;0.93;0.40;;;18.40;55.50;;;;;;5094566;28;20110;-71
2022/05/23 02:15:25;;;;;;;0.93;0.28;;;18.40;55.50;;;;;;5075787;28;20044;-72
2022/05/23 02:17:50;;;;;;;1.77;0.30;;;18.40;55.50;;;;;;5076037;28;20123;-71
2022/05/23 02:20:16;;;;;;;0.70;0.20;;;18.50;55.60;;;;;;5076189;28;20044;-71
2022/05/23 02:22:42;;;;;;;2.47;0.20;;;18.40;55.50;;;;;;5076068;28;20123;-70
2022/05/23 02:25:09;;;;;;;0.70;0.20;;;18.40;55.50;;;;;;5094126;28;20085;-71
2022/05/23 02:27:35;;;;;;;1.52;0.20;;;18.40;55.50;;;;;;5093865;28;20044;-71
2022/05/23 02:30:01;;;;;;;1.52;0.20;;;18.40;55.50;;;;;;5094004;28;20043;-72
2022/05/23 02:32:26;;;;;;;0.40;0.10;;;18.50;55.60;;;;;;5076132;28;20051;-71
2022/05/23 02:34:56;;;;;;;0.77;0.40;;;18.40;55.50;;;;;;5075747;28;20044;-71
2022/05/23 02:37:21;;;;;;;1.98;0.28;;;18.40;55.50;;;;;;5075631;28;20092;-69
2022/05/23 02:39:47;;;;;;;1.80;0.30;;;18.40;55.50;;;;;;5093756;28;20496;-71
2022/05/23 02:42:13;;;;;;;0.45;0.20;;;18.40;56.30;;;;;;5076115;28;20042;-71
2022/05/23 02:44:38;;;;;;;2.03;0.30;;;18.40;55.50;;;;;;5075564;28;20173;-66
2022/05/23 02:47:04;;;;;;;1.00;0.22;;;18.40;55.60;;;;;;5075155;28;20048;-71
2022/05/23 02:49:30;;;;;;;1.75;0.30;;;18.40;55.60;;;;;;5075138;28;20109;-66
2022/05/23 02:51:55;;;;;;;1.13;0.30;;;18.40;55.50;;;;;;5059029;28;20040;-71
2022/05/23 02:54:21;;;;;;;2.15;0.20;;;18.40;55.60;;;;;;5093497;28;20047;-72
2022/05/23 02:56:47;;;;;;;1.98;0.30;;;18.40;55.60;;;;;;5093157;28;20079;-71
2022/05/23 02:59:12;;;;;;;1.15;0.20;;;18.40;55.60;;;;;;5075332;28;20046;-71
2022/05/23 03:04:26;;;;;;;1.15;0.38;;;18.40;55.60;;;;;;5075105;28;20079;-66
2022/05/23 03:06:52;;;;;;;1.05;0.17;;;18.30;55.50;;;;;;5075210;28;20075;-67
2022/05/23 03:09:17;;;;;;;0.73;0.20;;;18.40;55.60;;;;;;5068880;28;20486;-73
2022/05/23 03:11:43;;;;;;;2.45;0.95;;;18.40;55.60;;;;;;5092464;28;20093;-66
2022/05/23 03:14:09;;;;;;;0.70;0.20;;;18.40;55.60;;;;;;5075256;28;20472;-72
2022/05/23 03:16:35;;;;;;;1.40;0.22;;;18.30;55.50;;;;;;5074929;28;20042;-67
2022/05/23 03:19:00;;;;;;;1.65;0.20;;;18.30;55.50;;;;;;5093176;28;20406;-71
2022/05/23 03:26:58;;;;;;;1.40;0.35;;;18.30;55.60;;;;;;5074407;28;20081;-71
2022/05/23 03:29:24;;;;;;;1.10;0.20;;;18.30;55.60;;;;;;5074880;28;20383;-71
2022/05/23 03:31:49;;;;;;;1.10;0.30;;;18.30;55.60;;;;;;5075134;28;20036;-71
2022/05/23 03:34:16;;;;;;;1.00;0.28;;;18.30;55.60;;;;;;5074640;28;20389;-67
2022/05/23 03:36:41;;;;;;;1.25;0.20;;;18.30;55.60;;;;;;5074206;28;20199;-71
2022/05/23 03:39:07;;;;;;;1.65;0.30;;;18.30;55.60;;;;;;5074441;28;20044;-71
2022/05/23 03:41:32;;;;;;;1.08;0.20;;;18.30;55.60;;;;;;5092580;28;20050;-71
2022/05/23 03:43:58;;;;;;;1.05;0.20;;;18.30;55.60;;;;;;5092787;28;20043;-72
2022/05/23 03:46:28;;;;;;;2.13;0.30;;;18.30;55.60;;;;;;5074331;28;20509;-71
2022/05/23 03:48:57;;;;;;;0.65;0.20;;;18.30;55.60;;;;;;5092458;28;20046;-71
2022/05/23 03:51:23;;;;;;;1.10;0.20;;;18.30;55.60;;;;;;5074471;28;20472;-71
2022/05/23 03:53:48;;;;;;;0.50;0.20;;;18.30;55.60;;;;;;5074391;28;20129;-69
2022/05/23 03:56:14;;;;;;;1.60;0.32;;;18.30;55.60;;;;;;5073909;28;20036;-71
2022/05/23 03:58:40;;;;;;;1.17;0.30;;;18.30;55.70;;;;;;5092582;28;20032;-72
2022/05/23 04:01:13;;;;;;;0.93;0.20;;;18.30;55.60;;;;;;5074418;28;20097;-66
2022/05/23 04:03:40;;;;;;;0.55;0.10;;;18.30;55.60;;;;;;5074056;28;20043;-71
2022/05/23 04:06:06;;;;;;;1.13;0.28;;;18.30;56.30;;;;;;5074262;28;20040;-73
2022/05/23 04:08:32;;;;;;;0.65;0.20;;;18.30;55.60;;;;;;5074069;28;20043;-72
2022/05/23 04:10:57;;;;;;;0.50;0.20;;;18.30;55.60;;;;;;5091983;28;20036;-73
2022/05/23 04:13:24;;;;;;;0.60;0.30;;;18.30;55.60;;;;;;5074112;28;20047;-72
2022/05/23 04:15:50;;;;;;;2.35;0.40;;;18.30;55.60;;;;;;5073493;28;20036;-68
2022/05/23 04:18:16;;;;;;;0.90;0.20;;;18.30;55.70;;;;;;5073569;28;20089;-71
2022/05/23 04:20:43;;;;;;;1.13;0.32;;;18.30;55.70;;;;;;5073596;28;20051;-72
2022/05/23 04:23:09;;;;;;;2.03;0.20;;;18.30;55.70;;;;;;5091992;28;20452;-66
2022/05/23 04:25:45;;;;;;;1.15;0.22;;;18.30;55.70;;;;;;5073800;28;20487;-72
2022/05/23 04:28:15;;;;;;;1.02;0.30;;;18.30;55.70;;;;;;5073422;28;20048;-67
2022/05/23 04:30:43;;;;;;;0.63;0.40;;;18.30;55.70;;;;;;5092044;28;20123;-72
2022/05/23 04:35:54;;;;;;;0.50;0.20;;;18.30;55.70;;;;;;5073374;28;20052;-66
2022/05/23 04:38:21;;;;;;;0.98;0.20;;;18.30;55.80;;;;;;5073318;28;20051;-72
2022/05/23 04:40:47;;;;;;;1.08;0.22;;;18.30;55.70;;;;;;5073580;28;20044;-70
2022/05/23 04:43:12;;;;;;;1.35;0.22;;;18.30;55.80;;;;;;5073935;28;20118;-72
2022/05/23 04:45:38;;;;;;;1.05;0.20;;;18.30;55.80;;;;;;5091944;28;20455;-72
2022/05/23 04:50:50;;;;;;;1.15;0.30;;;18.30;55.80;;;;;;5069866;28;20480;-71
2022/05/23 04:53:16;;;;;;;2.03;0.30;;;18.30;55.80;;;;;;5070311;28;20051;-71
2022/05/23 04:55:43;;;;;;;1.15;0.20;;;18.30;55.80;;;;;;5082004;28;20388;-71
2022/05/23 04:58:11;;;;;;;0.70;0.20;;;18.30;55.90;;;;;;5089769;28;20051;-71
2022/05/23 05:00:39;;;;;;;0.93;0.30;;;18.30;55.80;;;;;;5090195;28;20116;-69
2022/05/23 05:03:05;;;;;;;0.90;0.20;;;18.30;55.80;;;;;;5091820;28;20054;-66
2022/05/23 05:05:33;;;;;;;1.83;0.35;;;18.30;55.90;;;;;;5090172;28;20132;-72
2022/05/23 05:07:59;;;;;;;1.02;0.28;;;18.20;55.80;;;;;;5090016;28;20055;-66
2022/05/23 05:10:26;;;;;;;1.70;0.40;;;18.30;55.90;;;;;;5091227;28;20047;-67
2022/05/23 05:12:53;;;;;;;2.92;0.30;;;18.30;55.90;;;;;;5090448;28;20040;-72
2022/05/23 05:15:19;;;;;;;0.95;0.20;;;18.30;55.90;;;;;;5089815;28;20040;-66
2022/05/23 05:17:47;;;;;;;0.95;0.30;;;18.30;55.90;;;;;;5089869;28;20036;-66
2022/05/23 05:20:15;;;;;;;1.35;0.20;;;18.30;56.00;;;;;;5091012;28;20051;-71
2022/05/23 05:22:41;;;;;;;1.67;0.40;;;18.30;56.00;;;;;;5090474;28;20198;-72
2022/05/23 05:25:09;;;;;;;1.30;0.25;;;18.30;55.90;;;;;;5090287;28;20567;-71
2022/05/23 05:27:37;;;;;;;0.95;0.22;;;18.30;55.90;;;;;;5091229;28;20040;-71
2022/05/23 05:30:07;;;;;;;1.10;0.30;;;18.30;55.90;;;;;;5088964;28;20111;-67
2022/05/23 05:35:48;;;;;;;2.10;0.20;;;18.30;55.90;;;;;;5144887;27;1162852;-70
2022/05/23 05:41:05;;;;;;;1.35;0.30;;;18.50;56.50;;;;;;5128632;27;20114;-72
2022/05/23 05:43:36;;;;;;;1.08;0.17;;;18.60;56.80;;;;;;5128016;28;20051;-69
2022/05/23 05:46:09;;;;;;;1.65;0.20;;;18.60;57.00;;;;;;5128156;28;20043;-70
2022/05/23 05:48:40;;;;;;;1.42;0.20;;;18.60;56.60;;;;;;5115760;27;20035;-71
2022/05/23 05:51:07;;;;;;;3.13;0.25;;;18.70;56.50;;;;;;5120177;28;20368;-73
2022/05/23 05:53:33;;;;;;;1.48;0.30;;;18.70;56.60;;;;;;5127743;28;20085;-69
2022/05/23 05:56:02;;;;;;;2.55;0.47;;;18.80;56.80;;;;;;5125767;28;20507;-72
2022/05/23 05:58:34;;;;;;;0.65;0.20;;;18.80;56.70;;;;;;5094787;28;20047;-69
2022/05/23 06:00:59;;;;;;;2.33;0.30;;;18.80;56.50;;;;;;5115711;28;20034;-71
2022/05/23 06:03:25;;;;;;;1.90;0.30;;;18.90;56.50;;;;;;5120344;28;20035;-70
2022/05/23 06:11:23;;;;;;;1.27;0.40;;;18.90;56.40;;;;;;5118620;28;20155;-72
2022/05/23 06:13:49;;;;;;;1.65;0.60;;;18.90;56.40;;;;;;5120440;28;20092;-71
2022/05/23 06:16:15;;;;;;;2.40;0.40;;;18.90;56.40;;;;;;5119333;28;20063;-69
2022/05/23 06:18:42;;;;;;;1.77;0.30;;;19.00;56.40;;;;;;5115984;28;20065;-71
2022/05/23 06:21:09;;;;;;;1.98;0.50;;;19.00;56.40;;;;;;5109552;28;20507;-71
2022/05/23 06:23:36;;;;;;;0.55;0.20;;;19.00;56.40;;;;;;5092951;28;20672;-72
2022/05/23 06:26:02;;;;;;;2.50;0.40;;;19.00;56.50;;;;;;5103258;28;20100;-72
2022/05/23 06:28:28;;;;;;;0.98;0.30;;;19.10;56.60;;;;;;5121221;28;20364;-72
2022/05/23 06:30:54;;;;;;;3.05;0.50;;;19.10;56.60;;;;;;5119700;28;20104;-72
2022/05/23 06:33:20;;;;;;;1.60;0.40;;;19.20;56.70;;;;;;5119798;28;20043;-71
2022/05/23 06:35:46;;;;;;;1.60;0.45;;;19.20;56.60;;;;;;5115972;28;20152;-65
2022/05/23 06:38:12;;;;;;;1.65;0.70;;;19.20;56.60;;;;;;5106099;28;20039;-71
2022/05/23 06:40:37;;;;;;;6.35;0.40;;;19.30;56.70;;;;;;5102998;27;20048;-71
2022/05/23 06:43:03;;;;;;;4.43;0.50;;;19.30;56.70;;;;;;5110243;28;20047;-72
2022/05/23 06:45:29;;;;;;;4.40;0.57;;;19.30;56.70;;;;;;5113179;28;20040;-71
2022/05/23 06:47:54;;;;;;;1.88;0.70;;;19.40;57.10;;;;;;5104828;27;20035;-70
2022/05/23 06:50:20;;;;;;;1.10;0.40;;;19.40;57.40;;;;;;5111230;28;20534;-69
2022/05/23 06:52:49;;;;;;;2.20;0.57;;;19.50;57.50;;;;;;5099684;28;20051;-69
2022/05/23 06:55:17;;;;;;;1.45;0.50;;;19.50;57.20;;;;;;5094901;28;20080;-69
2022/05/23 06:57:43;;;;;;;2.60;0.40;;;19.50;57.10;;;;;;5091328;28;20138;-69
2022/05/23 07:00:10;;;;;;;1.77;0.52;;;19.60;57.00;;;;;;5097411;28;20058;-74
2022/05/23 07:02:37;;;;;;;6.40;0.77;;;19.70;57.10;;;;;;5087132;28;20044;-72
2022/05/23 07:13:23;;;;;;;4.00;0.70;;;19.70;57.10;;;;;;5089541;28;20075;-70
2022/05/23 07:15:48;;;;;;;6.05;1.58;;;19.80;57.10;;;;;;5093986;28;20124;-71
2022/05/23 07:18:17;;;;;;;2.50;1.15;;;19.80;57.00;;;;;;5105404;27;20089;-73
2022/05/23 07:20:45;;;;;;;1.63;0.50;;;19.80;57.10;;;;;;5098193;28;20055;-74
2022/05/23 07:23:15;;;;;;;3.35;0.77;;;19.80;56.90;;;;;;5108908;27;20075;-74
2022/05/23 07:25:41;;;;;;;1.98;0.60;;;19.80;57.10;;;;;;5089182;28;20504;-73
2022/05/23 07:28:09;;;;;;;1.45;0.60;;;19.90;57.00;;;;;;5094195;28;20122;-73
2022/05/23 07:30:35;;;;;;;1.98;0.88;;;20.00;57.00;;;;;;5080167;28;20039;-71
2022/05/23 07:33:00;;;;;;;0.88;0.50;;;19.90;56.90;;;;;;5087130;27;20185;-73
2022/05/23 07:35:26;;;;;;;2.05;0.73;;;19.90;56.90;;;;;;5085044;28;20044;-73
2022/05/23 07:37:53;;;;;;;2.67;0.80;;;19.90;57.10;;;;;;5083610;27;20101;-73
2022/05/23 07:40:22;;;;;;;1.80;0.70;;;19.90;57.20;;;;;;5095950;28;20047;-73
2022/05/23 07:42:48;;;;;;;1.70;0.50;;;20.10;57.30;;;;;;5091377;28;20123;-75
2022/05/23 07:45:14;;;;;;;1.60;0.50;;;20.00;57.20;;;;;;5100696;27;20816;-74
2022/05/23 07:47:41;;;;;;;2.42;0.93;;;20.00;57.20;;;;;;5089806;28;20044;-72
2022/05/23 07:50:10;;;;;;;3.53;0.77;;;20.00;57.10;;;;;;5092136;28;20034;-73
2022/05/23 07:52:36;;;;;;;1.80;0.60;;;20.00;57.40;;;;;;5086644;28;20040;-74
2022/05/23 08:00:37;;;;;;;3.40;0.80;;;20.10;57.20;;;;;;5099691;28;20939;-76
2022/05/23 08:05:44;;;;;;;1.65;0.80;;;20.10;57.10;;;;;;5087253;27;20502;-70
2022/05/23 08:08:10;;;;;;;2.08;0.50;;;20.20;57.50;;;;;;5068288;28;20126;-73
2022/05/23 08:10:36;;;;;;;2.00;0.90;;;20.30;57.50;;;;;;5097766;28;20182;-71
2022/05/23 08:13:09;;;;;;;1.88;0.60;;;20.30;57.50;;;;;;5061611;28;20124;-71
2022/05/23 08:15:37;;;;;;;4.85;0.70;;;20.30;57.30;;;;;;5084382;28;20577;-70
2022/05/23 08:18:05;;;;;;;2.78;0.65;;;20.30;57.20;;;;;;5067771;28;20055;-69
2022/05/23 08:20:31;;;;;;;3.25;0.77;;;20.30;57.20;;;;;;5066949;28;20082;-71
2022/05/23 08:22:59;;;;;;;2.95;0.93;;;20.40;57.40;;;;;;5062873;28;20044;-70
2022/05/23 08:25:25;;;;;;;1.20;0.65;;;20.40;57.40;;;;;;5068045;28;20036;-71
2022/05/23 08:27:53;;;;;;;3.08;1.17;;;20.40;57.30;;;;;;5087837;28;20101;-70
2022/05/23 08:30:19;;;;;;;3.25;0.98;;;20.40;57.10;;;;;;5069543;28;20565;-72
2022/05/23 08:32:48;;;;;;;2.42;0.65;;;20.50;57.10;;;;;;5065374;28;20040;-72
2022/05/23 08:35:14;;;;;;;2.20;1.02;;;20.50;57.10;;;;;;5090878;28;20063;-73
2022/05/23 08:37:41;;;;;;;2.47;0.93;;;20.50;57.10;;;;;;5101383;28;20504;-72
2022/05/23 08:40:09;;;;;;;4.03;1.23;;;20.60;57.40;;;;;;5102957;28;20047;-74
2022/05/23 08:48:23;;;;;;;3.05;0.90;;;20.60;57.40;;;;;;5109312;27;1164319;-74
2022/05/23 08:53:48;;;;;;;5.97;1.73;;;21.00;57.30;;;;;;5086074;27;20975;-74
2022/05/23 08:56:31;;;;;;;5.28;1.23;;;21.30;57.30;;;;;;5088368;28;20139;-73
2022/05/23 08:59:00;;;;;;;4.95;1.20;;;21.40;57.10;;;;;;5076316;28;20060;-73
2022/05/23 09:01:48;;;;;;;3.67;1.15;;;21.60;56.70;;;;;;5066094;28;20041;-74
2022/05/23 09:06:58;;;;;;;5.13;1.23;;;21.80;56.60;;;;;;5057691;27;20464;-74
2022/05/23 09:09:24;;;;;;;3.13;1.30;;;22.00;56.00;;;;;;5054989;28;20555;-74
2022/05/23 09:12:01;;;;;;;4.60;1.10;;;22.00;56.00;;;;;;5058027;28;20037;-76
2022/05/23 09:14:26;;;;;;;4.80;1.33;;;22.10;56.10;;;;;;5054657;28;20109;-74
2022/05/23 09:16:55;;;;;;;16.77;1.98;;;22.10;56.20;;;;;;5042695;28;20041;-77
2022/05/23 09:19:42;;;;;;;1.90;1.17;;;22.00;56.20;;;;;;5056905;28;20388;-77
2022/05/23 09:24:54;;;;;;;3.28;1.35;;;22.00;56.40;;;;;;5052720;27;20481;-76
2022/05/23 09:41:02;;;;;;;12.50;1.40;;;21.90;56.70;;;;;;5001646;27;4101180;-72
2022/05/23 09:52:00;;;;;;;6.05;1.20;;;22.00;56.90;;;;;;5064559;27;20421;-73
2022/05/23 09:54:29;;;;;;;;;;;22.20;56.60;;;;;;5068937;28;20086;-73
2022/05/23 09:56:58;;;;;;;2.22;1.30;;;22.20;56.80;;;;;;5056663;28;19921;-72
2022/05/23 09:59:31;;;;;;;4.97;1.52;;;22.30;56.20;;;;;;5060194;28;20512;-73
2022/05/23 10:02:01;;;;;;;2.95;1.00;;;22.30;56.20;;;;;;5042748;28;20124;-70
2022/05/23 10:04:30;;;;;;;4.80;1.38;;;22.30;56.10;;;;;;5054934;28;20049;-68
2022/05/23 10:06:56;;;;;;;8.07;1.20;;;22.30;56.10;;;;;;5051571;28;20057;-69
2022/05/23 10:12:09;;;;;;;5.13;1.13;;;22.40;56.10;;;;;;5056404;28;20473;-69
2022/05/23 10:17:27;;;;;;;3.58;0.95;;;22.50;56.00;;;;;;5119098;27;1264083;-67
2022/05/23 10:19:53;;;;;;;3.88;0.85;;;22.50;55.70;;;;;;5128178;27;20091;-67
2022/05/23 10:22:24;;;;;;;5.18;0.93;;;22.60;55.70;;;;;;5157769;27;20149;-68
2022/05/23 10:27:47;;;;;;;4.40;0.90;;;22.60;55.70;;;;;;5115489;27;1171141;-68
2022/05/23 10:30:20;;;;;;;4.80;1.10;;;22.60;55.60;;;;;;5136569;27;20051;-68
2022/05/23 10:32:48;;;;;;;5.05;1.30;;;22.50;55.60;;;;;;5134579;27;20451;-72
2022/05/23 10:42:07;;;;;;;1.48;0.60;;;22.60;55.70;;;;;;5091245;27;20374;-73
2022/05/23 10:43:58;;;;;;;2.03;0.52;;;22.70;55.80;;;;;;5088018;28;20039;-72
2022/05/23 10:46:27;;;;;;;6.88;0.73;;;22.70;55.50;;;;;;5086452;28;20055;-67
2022/05/23 11:00:07;;;;;;;3.40;0.87;;;22.60;55.50;;;;;;5085784;27;1850975;-70
2022/05/23 11:05:27;;;;;;;2.22;1.00;;;22.60;56.10;;;;;;5075225;27;20486;-66
2022/05/23 11:21:58;;;;;;;2.95;0.70;;;22.50;56.20;;;;;;5114103;27;1162198;-69
2022/05/23 11:24:50;;;;;;;5.25;1.35;;;22.70;56.20;;;;;;5130707;27;20614;-68
2022/05/23 11:33:47;;;;;;;4.68;0.82;;;22.70;56.30;;;;;;5128523;27;20489;-71
2022/05/23 11:36:06;;;;;;;2.90;1.00;;;22.70;56.30;;;;;;5124446;27;20051;-72
2022/05/23 11:38:32;;;;;;;3.08;1.10;;;22.70;56.30;;;;;;5146204;27;20590;-75
2022/05/23 11:41:03;;;;;;;1.75;0.90;;;22.70;56.20;;;;;;5125283;27;20036;-73
2022/05/23 11:43:29;;;;;;;2.90;0.70;;;22.70;56.40;;;;;;5119745;27;20107;-71
2022/05/23 11:45:59;;;;;;;3.20;1.17;;;22.70;56.50;;;;;;5119226;27;20682;-72
2022/05/23 11:54:25;;;;;;;1.52;0.55;;;22.70;56.60;;;;;;5108058;27;20445;-67
2022/05/23 12:02:26;;;;;;;2.38;0.73;;;22.70;56.60;;;;;;5097179;27;20498;-71
2022/05/23 12:13:37;;;;;;;7.38;1.15;;;22.80;56.40;;;;;;5088131;27;20177;-70
2022/05/23 12:35:57;;;;;;;5.70;0.88;;;23.10;57.00;;;;;;5108549;27;20446;-73
2022/05/23 12:56:03;;;;;;;4.50;1.30;;;23.00;57.60;;;;;;5087715;27;20484;-70
2022/05/23 12:58:59;;;;;;;8.10;0.90;;;22.90;57.60;;;;;;5096063;28;20550;-69
2022/05/23 13:01:31;;;;;;;6.72;1.27;;;23.00;57.90;;;;;;5095795;28;20159;-68
2022/05/23 13:04:08;;;;;;;13.80;1.48;;;23.00;57.90;;;;;;5073061;28;20760;-69
2022/05/23 13:12:36;;;;;;;10.88;1.60;;;22.90;58.00;;;;;;5072125;27;20481;-67
2022/05/23 13:15:03;;;;;;;7.30;1.30;;;22.90;58.10;;;;;;5056080;28;20067;-68
2022/05/23 13:17:45;;;;;;;3.83;1.00;;;22.80;58.20;;;;;;5062942;28;20037;-68
2022/05/23 13:23:22;;;;;;;3.10;1.00;;;22.70;58.40;;;;;;5062435;28;20508;-72
2022/05/23 13:25:48;;;;;;;2.20;0.75;;;22.70;58.50;;;;;;5063330;28;20048;-73
2022/05/23 13:28:15;;;;;;;3.53;0.70;;;22.70;58.40;;;;;;5063165;28;20049;-72
2022/05/23 13:30:51;;;;;;;3.88;1.38;;;22.80;58.40;;;;;;5061995;28;20432;-71
2022/05/23 13:33:21;;;;;;;2.53;0.80;;;22.80;58.20;;;;;;5063850;28;20158;-70
2022/05/23 13:35:54;;;;;;;4.70;0.70;;;22.80;58.10;;;;;;5083939;28;20051;-71
2022/05/23 13:38:27;;;;;;;8.20;0.85;;;22.90;58.00;;;;;;5058658;28;20041;-74
2022/05/23 13:40:55;;;;;;;4.07;0.98;;;22.90;58.00;;;;;;5061336;28;20090;-75
2022/05/23 13:43:27;;;;;;;1.98;1.00;;;23.00;58.00;;;;;;5063552;28;20090;-71
2022/05/23 13:46:22;;;;;;;3.80;0.98;;;23.00;58.10;;;;;;5079179;28;20033;-71
2022/05/23 13:51:46;;;;;;;1.48;0.70;;;23.00;58.30;;;;;;5104003;27;20404;-73
2022/05/23 13:54:18;;;;;;;3.40;1.05;;;23.00;58.20;;;;;;5086002;28;20614;-72
2022/05/23 13:56:48;;;;;;;3.97;1.33;;;23.10;58.00;;;;;;5086274;28;20054;-72
2022/05/23 13:59:18;;;;;;;3.05;0.82;;;23.10;57.80;;;;;;5084783;28;20062;-71
2022/05/23 14:01:49;;;;;;;2.27;0.73;;;23.00;57.80;;;;;;5085966;28;20126;-72
2022/05/23 14:04:21;;;;;;;2.97;0.70;;;23.00;57.80;;;;;;5084394;28;20800;-68
2022/05/23 14:07:00;;;;;;;1.65;1.00;;;22.90;57.70;;;;;;5103228;28;20613;-71
2022/05/23 14:09:26;;;;;;;3.22;1.00;;;22.90;57.70;;;;;;5102615;28;20043;-72
2022/05/23 14:11:55;;;;;;;4.32;1.08;;;22.90;57.90;;;;;;5087096;28;20047;-72
2022/05/23 14:14:34;;;;;;;2.25;1.00;;;22.80;57.90;;;;;;5087451;28;20044;-72
2022/05/23 14:17:09;;;;;;;1.13;0.93;;;22.70;57.90;;;;;;5085399;28;20062;-70
2022/05/23 14:19:53;;;;;;;3.53;1.15;;;22.70;58.10;;;;;;5086514;28;20043;-72
2022/05/23 14:22:30;;;;;;;4.90;1.42;;;22.70;58.10;;;;;;5086726;28;20079;-72
2022/05/23 14:24:59;;;;;;;1.83;0.88;;;22.60;58.20;;;;;;5067773;28;20093;-70
2022/05/23 14:27:45;;;;;;;2.20;0.80;;;22.60;58.30;;;;;;5072498;28;20066;-70
2022/05/23 14:33:18;;;;;;;2.50;1.15;;;22.50;58.60;;;;;;5086224;27;21079;-72
2022/05/23 14:38:41;;;;;;;4.05;1.30;;;22.50;58.40;;;;;;5127204;27;20040;-71
2022/05/23 14:46:38;;;;;;;2.03;0.77;;;22.40;58.50;;;;;;5127101;27;20428;-70
2022/05/23 14:52:24;;;;;;;1.67;0.80;;;22.40;58.60;;;;;;5116169;27;20428;-70
2022/05/23 14:55:22;;;;;;;5.03;0.85;;;22.30;58.60;;;;;;5114124;28;20027;-72
2022/05/23 15:00:41;;;;;;;2.33;1.20;;;22.30;58.70;;;;;;5111678;28;20527;-70
2022/05/23 15:05:56;;;;;;;2.00;0.93;;;22.30;58.80;;;;;;5140667;27;1170608;-71
2022/05/23 15:08:23;;;;;;;3.25;1.02;;;22.40;58.50;;;;;;5143173;27;20485;-71
2022/05/23 15:10:52;;;;;;;1.88;1.00;;;22.30;58.60;;;;;;5145928;27;20434;-71
2022/05/23 15:13:18;;;;;;;1.52;0.98;;;22.30;58.60;;;;;;5144090;27;20038;-71
2022/05/23 15:15:44;;;;;;;2.08;1.00;;;22.30;58.70;;;;;;5147426;27;20374;-71
2022/05/23 15:18:13;;;;;;;2.22;1.13;;;22.30;58.70;;;;;;5145953;27;20066;-72
2022/05/23 15:20:40;;;;;;;1.55;0.80;;;22.20;58.60;;;;;;5166266;27;20160;-72
2022/05/23 15:23:06;;;;;;;3.47;1.20;;;22.20;58.70;;;;;;5147708;27;20265;-68
2022/05/23 15:25:32;;;;;;;1.70;0.90;;;22.10;58.60;;;;;;5169890;27;20085;-73
2022/05/23 15:27:58;;;;;;;2.83;0.80;;;22.30;59.00;;;;;;5148782;27;20682;-69
2022/05/23 15:30:30;;;;;;;2.45;0.82;;;22.40;59.20;;;;;;5169712;27;20090;-70
2022/05/23 15:32:57;;;;;;;2.45;0.80;;;22.40;59.30;;;;;;5169965;27;20043;-70
2022/05/23 15:35:24;;;;;;;3.80;0.85;;;22.40;59.10;;;;;;5148727;27;20366;-70
2022/05/23 15:37:50;;;;;;;0.95;0.60;;;22.50;59.10;;;;;;5170431;27;20062;-70
2022/05/23 15:40:18;;;;;;;2.50;0.90;;;22.40;59.10;;;;;;5151623;27;20413;-71
2022/05/23 15:42:47;;;;;;;1.33;0.77;;;22.40;59.30;;;;;;5158672;27;20642;-71
2022/05/23 15:45:25;;;;;;;3.58;0.68;;;22.40;59.40;;;;;;5128861;27;20085;-72
2022/05/23 15:47:52;;;;;;;1.63;0.90;;;22.40;59.50;;;;;;5128628;27;20106;-72
2022/05/23 15:50:19;;;;;;;3.40;0.80;;;22.30;59.40;;;;;;5128730;27;20348;-72
2022/05/23 15:52:45;;;;;;;2.13;0.70;;;22.30;59.60;;;;;;5131461;27;20474;-72
2022/05/23 15:55:12;;;;;;;0.98;0.68;;;22.30;59.70;;;;;;5150192;27;20398;-70
2022/05/23 15:57:42;;;;;;;1.85;1.10;;;22.30;59.60;;;;;;5130019;27;20405;-72
2022/05/23 16:00:16;;;;;;;3.17;0.95;;;22.30;59.60;;;;;;5131181;27;20573;-72
2022/05/23 16:02:42;;;;;;;2.70;1.00;;;22.30;59.70;;;;;;5131082;27;20532;-71
2022/05/23 16:05:09;;;;;;;2.10;0.77;;;22.20;59.60;;;;;;5141681;27;20077;-71
2022/05/23 16:07:35;;;;;;;2.30;0.70;;;22.20;59.70;;;;;;5152791;27;20042;-70
2022/05/23 16:10:02;;;;;;;2.78;0.90;;;22.20;59.70;;;;;;5148666;27;20068;-70
2022/05/23 16:12:32;;;;;;;3.15;0.90;;;22.20;59.70;;;;;;5131396;27;20047;-71
2022/05/23 16:14:59;;;;;;;;;;;22.20;59.60;;;;;;5149788;27;20039;-70
2022/05/23 16:17:27;;;;;;;2.47;1.13;;;22.20;59.50;;;;;;5117057;27;19916;-70
2022/05/23 16:19:54;;;;;;;3.30;0.95;;;22.20;59.70;;;;;;5117357;27;20039;-72
2022/05/23 16:22:23;;;;;;;1.45;1.08;;;22.10;59.70;;;;;;5117177;27;20051;-72
2022/05/23 16:24:51;;;;;;;1.60;0.82;;;22.10;59.80;;;;;;5117185;27;20402;-70
2022/05/23 16:27:17;;;;;;;1.65;0.80;;;22.10;59.80;;;;;;5117469;27;20125;-71
2022/05/23 16:29:43;;;;;;;3.30;0.95;;;22.10;59.90;;;;;;5117278;27;20600;-71
2022/05/23 16:36:35;;;;;;;1.80;0.70;;;22.10;59.80;;;;;;5117115;27;20046;-70
2022/05/23 16:37:39;;;;;;;2.17;0.80;;;22.10;59.90;;;;;;5117005;27;20418;-70
2022/05/23 16:40:05;;;;;;;2.55;0.80;;;22.10;59.80;;;;;;5135381;27;20046;-70